sensor_id;sensor_type;location;lat;lon;timestamp;temperature;humidity
37204;DHT22;23098;48.054;10.636;2023-04-25T00:00:21;5.70;99.90
37204;DHT22;23098;48.054;10.636;2023-04-25T00:02:47;5.70;99.90
37204;DHT22;23098;48.054;10.636;2023-04-25T00:05:12;5.70;99.90
37204;DHT22;23098;48.054;10.636;2023-04-25T00:07:40;5.60;99.90
37204;DHT22;23098;48.054;10.636;2023-04-25T00:10:08;5.60;99.90
37204;DHT22;23098;48.054;10.636;2023-04-25T00:12:34;5.50;99.90
37204;DHT22;23098;48.054;10.636;2023-04-25T00:14:59;5.50;99.90
37204;DHT22;23098;48.054;10.636;2023-04-25T00:17:25;5.50;99.90
37204;DHT22;23098;48.054;10.636;2023-04-25T00:19:52;5.40;99.90
37204;DHT22;23098;48.054;10.636;2023-04-25T00:22:17;5.40;99.90
37204;DHT22;23098;48.054;10.636;2023-04-25T00:24:43;5.40;99.90
37204;DHT22;23098;48.054;10.636;2023-04-25T00:27:09;5.40;99.90
37204;DHT22;23098;48.054;10.636;2023-04-25T00:29:34;5.40;99.90
37204;DHT22;23098;48.054;10.636;2023-04-25T00:32:00;5.40;99.90
37204;DHT22;23098;48.054;10.636;2023-04-25T00:34:25;5.40;99.90
37204;DHT22;23098;48.054;10.636;2023-04-25T00:36:51;5.40;99.90
37204;DHT22;23098;48.054;10.636;2023-04-25T00:39:17;5.30;99.90
37204;DHT22;23098;48.054;10.636;2023-04-25T00:41:43;5.30;99.90
37204;DHT22;23098;48.054;10.636;2023-04-25T00:44:10;5.30;99.90
37204;DHT22;23098;48.054;10.636;2023-04-25T00:46:37;5.30;99.90
37204;DHT22;23098;48.054;10.636;2023-04-25T00:49:03;5.30;99.90
37204;DHT22;23098;48.054;10.636;2023-04-25T00:51:29;5.20;99.90
37204;DHT22;23098;48.054;10.636;2023-04-25T00:53:57;5.20;99.90
37204;DHT22;23098;48.054;10.636;2023-04-25T00:56:23;5.20;99.90
37204;DHT22;23098;48.054;10.636;2023-04-25T00:58:49;5.20;99.90
37204;DHT22;23098;48.054;10.636;2023-04-25T01:01:15;5.20;99.90
37204;DHT22;23098;48.054;10.636;2023-04-25T01:03:41;5.10;99.90
37204;DHT22;23098;48.054;10.636;2023-04-25T01:06:09;5.10;99.90
37204;DHT22;23098;48.054;10.636;2023-04-25T01:08:36;5.20;99.90
37204;DHT22;23098;48.054;10.636;2023-04-25T01:11:02;5.20;99.90
37204;DHT22;23098;48.054;10.636;2023-04-25T01:13:28;5.30;99.90
37204;DHT22;23098;48.054;10.636;2023-04-25T01:15:53;5.30;99.90
37204;DHT22;23098;48.054;10.636;2023-04-25T01:18:19;5.40;99.90
37204;DHT22;23098;48.054;10.636;2023-04-25T01:20:47;5.40;99.90
37204;DHT22;23098;48.054;10.636;2023-04-25T01:23:13;5.60;99.90
37204;DHT22;23098;48.054;10.636;2023-04-25T01:25:40;5.70;99.90
37204;DHT22;23098;48.054;10.636;2023-04-25T01:28:05;5.80;99.90
37204;DHT22;23098;48.054;10.636;2023-04-25T01:30:31;5.90;99.90
37204;DHT22;23098;48.054;10.636;2023-04-25T01:32:57;6.00;99.90
37204;DHT22;23098;48.054;10.636;2023-04-25T01:35:24;6.20;99.90
37204;DHT22;23098;48.054;10.636;2023-04-25T01:37:51;6.40;99.90
37204;DHT22;23098;48.054;10.636;2023-04-25T01:40:18;6.60;99.90
37204;DHT22;23098;48.054;10.636;2023-04-25T01:42:45;6.60;99.90
37204;DHT22;23098;48.054;10.636;2023-04-25T01:45:12;6.70;99.90
37204;DHT22;23098;48.054;10.636;2023-04-25T01:47:38;6.70;99.90
37204;DHT22;23098;48.054;10.636;2023-04-25T01:50:07;6.80;99.90
37204;DHT22;23098;48.054;10.636;2023-04-25T01:52:32;6.90;99.90
37204;DHT22;23098;48.054;10.636;2023-04-25T01:55:00;7.00;99.90
37204;DHT22;23098;48.054;10.636;2023-04-25T01:57:26;7.00;99.90
37204;DHT22;23098;48.054;10.636;2023-04-25T01:59:58;6.90;99.90
37204;DHT22;23098;48.054;10.636;2023-04-25T02:02:24;6.20;99.90
37204;DHT22;23098;48.054;10.636;2023-04-25T02:04:50;5.90;99.90
37204;DHT22;23098;48.054;10.636;2023-04-25T02:07:15;5.60;99.90
37204;DHT22;23098;48.054;10.636;2023-04-25T02:09:41;5.40;99.90
37204;DHT22;23098;48.054;10.636;2023-04-25T02:12:09;5.30;99.90
37204;DHT22;23098;48.054;10.636;2023-04-25T02:14:34;5.30;99.90
37204;DHT22;23098;48.054;10.636;2023-04-25T02:17:00;5.30;99.90
37204;DHT22;23098;48.054;10.636;2023-04-25T02:19:26;5.30;99.90
37204;DHT22;23098;48.054;10.636;2023-04-25T02:21:51;5.30;99.90
37204;DHT22;23098;48.054;10.636;2023-04-25T02:24:17;5.20;99.90
37204;DHT22;23098;48.054;10.636;2023-04-25T02:26:42;5.20;99.90
37204;DHT22;23098;48.054;10.636;2023-04-25T02:29:09;5.10;99.90
37204;DHT22;23098;48.054;10.636;2023-04-25T02:31:35;5.10;99.90
37204;DHT22;23098;48.054;10.636;2023-04-25T02:34:01;5.00;99.90
37204;DHT22;23098;48.054;10.636;2023-04-25T02:36:27;4.90;99.90
37204;DHT22;23098;48.054;10.636;2023-04-25T02:38:53;4.90;99.90
37204;DHT22;23098;48.054;10.636;2023-04-25T02:41:18;4.90;99.90
37204;DHT22;23098;48.054;10.636;2023-04-25T02:43:44;4.80;99.90
37204;DHT22;23098;48.054;10.636;2023-04-25T02:46:09;4.70;99.90
37204;DHT22;23098;48.054;10.636;2023-04-25T02:48:35;4.70;99.90
37204;DHT22;23098;48.054;10.636;2023-04-25T02:51:00;4.70;99.90
37204;DHT22;23098;48.054;10.636;2023-04-25T02:53:26;4.60;99.90
37204;DHT22;23098;48.054;10.636;2023-04-25T02:55:51;4.70;99.90
37204;DHT22;23098;48.054;10.636;2023-04-25T02:58:18;4.70;99.90
37204;DHT22;23098;48.054;10.636;2023-04-25T03:00:43;4.70;99.90
37204;DHT22;23098;48.054;10.636;2023-04-25T03:03:09;4.70;99.90
37204;DHT22;23098;48.054;10.636;2023-04-25T03:05:34;4.70;99.90
37204;DHT22;23098;48.054;10.636;2023-04-25T03:08:00;4.80;99.90
37204;DHT22;23098;48.054;10.636;2023-04-25T03:10:26;4.80;99.90
37204;DHT22;23098;48.054;10.636;2023-04-25T03:12:51;4.70;99.90
37204;DHT22;23098;48.054;10.636;2023-04-25T03:15:17;4.70;99.90
37204;DHT22;23098;48.054;10.636;2023-04-25T03:17:42;4.70;99.90
37204;DHT22;23098;48.054;10.636;2023-04-25T03:20:08;4.70;99.90
37204;DHT22;23098;48.054;10.636;2023-04-25T03:22:34;4.80;99.90
37204;DHT22;23098;48.054;10.636;2023-04-25T03:25:00;4.70;99.90
37204;DHT22;23098;48.054;10.636;2023-04-25T03:27:25;4.70;99.90
37204;DHT22;23098;48.054;10.636;2023-04-25T03:29:51;4.70;99.90
37204;DHT22;23098;48.054;10.636;2023-04-25T03:32:16;4.80;99.90
37204;DHT22;23098;48.054;10.636;2023-04-25T03:34:42;4.80;99.90
37204;DHT22;23098;48.054;10.636;2023-04-25T03:37:07;4.90;99.90
37204;DHT22;23098;48.054;10.636;2023-04-25T03:39:33;4.90;99.90
37204;DHT22;23098;48.054;10.636;2023-04-25T03:41:58;4.90;99.90
37204;DHT22;23098;48.054;10.636;2023-04-25T03:44:24;4.90;99.90
37204;DHT22;23098;48.054;10.636;2023-04-25T03:46:50;5.00;99.90
37204;DHT22;23098;48.054;10.636;2023-04-25T03:49:16;5.00;99.90
37204;DHT22;23098;48.054;10.636;2023-04-25T03:51:41;5.00;99.90
37204;DHT22;23098;48.054;10.636;2023-04-25T03:54:07;5.00;99.90
37204;DHT22;23098;48.054;10.636;2023-04-25T03:56:33;5.00;99.90
37204;DHT22;23098;48.054;10.636;2023-04-25T03:58:58;5.10;99.90
37204;DHT22;23098;48.054;10.636;2023-04-25T04:01:24;5.10;99.90
37204;DHT22;23098;48.054;10.636;2023-04-25T04:03:50;5.10;99.90
37204;DHT22;23098;48.054;10.636;2023-04-25T04:06:16;5.10;99.90
37204;DHT22;23098;48.054;10.636;2023-04-25T04:08:42;5.20;99.90
37204;DHT22;23098;48.054;10.636;2023-04-25T04:11:07;5.20;99.90
37204;DHT22;23098;48.054;10.636;2023-04-25T04:13:33;5.20;99.90
37204;DHT22;23098;48.054;10.636;2023-04-25T04:15:58;5.30;99.90
37204;DHT22;23098;48.054;10.636;2023-04-25T04:18:24;5.40;99.90
37204;DHT22;23098;48.054;10.636;2023-04-25T04:20:49;5.50;99.90
37204;DHT22;23098;48.054;10.636;2023-04-25T04:23:16;5.60;99.90
37204;DHT22;23098;48.054;10.636;2023-04-25T04:25:41;5.60;99.90
37204;DHT22;23098;48.054;10.636;2023-04-25T04:28:07;5.60;99.90
37204;DHT22;23098;48.054;10.636;2023-04-25T04:30:33;5.70;99.90
37204;DHT22;23098;48.054;10.636;2023-04-25T04:33:02;5.70;99.90
37204;DHT22;23098;48.054;10.636;2023-04-25T04:35:27;5.70;99.90
37204;DHT22;23098;48.054;10.636;2023-04-25T04:37:53;5.70;99.90
37204;DHT22;23098;48.054;10.636;2023-04-25T04:40:19;5.60;99.90
37204;DHT22;23098;48.054;10.636;2023-04-25T04:42:45;5.60;99.90
37204;DHT22;23098;48.054;10.636;2023-04-25T04:45:11;5.60;99.90
37204;DHT22;23098;48.054;10.636;2023-04-25T04:47:38;5.60;99.90
37204;DHT22;23098;48.054;10.636;2023-04-25T04:50:08;5.60;99.90
37204;DHT22;23098;48.054;10.636;2023-04-25T04:52:35;5.70;99.90
37204;DHT22;23098;48.054;10.636;2023-04-25T04:55:01;5.70;99.90
37204;DHT22;23098;48.054;10.636;2023-04-25T04:57:28;5.80;99.90
37204;DHT22;23098;48.054;10.636;2023-04-25T04:59:53;5.80;99.90
37204;DHT22;23098;48.054;10.636;2023-04-25T05:02:19;5.80;99.90
37204;DHT22;23098;48.054;10.636;2023-04-25T05:04:45;5.90;99.90
37204;DHT22;23098;48.054;10.636;2023-04-25T05:07:11;5.90;99.90
37204;DHT22;23098;48.054;10.636;2023-04-25T05:09:36;6.00;99.90
37204;DHT22;23098;48.054;10.636;2023-04-25T05:12:02;6.00;99.90
37204;DHT22;23098;48.054;10.636;2023-04-25T05:14:28;6.00;99.90
37204;DHT22;23098;48.054;10.636;2023-04-25T05:16:53;6.00;99.90
37204;DHT22;23098;48.054;10.636;2023-04-25T05:19:19;5.90;99.90
37204;DHT22;23098;48.054;10.636;2023-04-25T05:21:45;5.90;99.90
37204;DHT22;23098;48.054;10.636;2023-04-25T05:24:10;6.00;99.90
37204;DHT22;23098;48.054;10.636;2023-04-25T05:26:37;6.10;99.90
37204;DHT22;23098;48.054;10.636;2023-04-25T05:29:02;6.20;99.90
37204;DHT22;23098;48.054;10.636;2023-04-25T05:31:28;6.30;99.90
37204;DHT22;23098;48.054;10.636;2023-04-25T05:33:54;6.30;99.90
37204;DHT22;23098;48.054;10.636;2023-04-25T05:36:19;6.40;99.90
37204;DHT22;23098;48.054;10.636;2023-04-25T05:38:45;6.90;99.90
37204;DHT22;23098;48.054;10.636;2023-04-25T05:41:10;7.70;99.90
37204;DHT22;23098;48.054;10.636;2023-04-25T05:43:36;8.70;99.90
37204;DHT22;23098;48.054;10.636;2023-04-25T05:46:01;9.40;99.90
37204;DHT22;23098;48.054;10.636;2023-04-25T05:48:27;10.10;99.90
37204;DHT22;23098;48.054;10.636;2023-04-25T05:50:53;10.50;99.90
37204;DHT22;23098;48.054;10.636;2023-04-25T05:53:19;10.80;99.90
37204;DHT22;23098;48.054;10.636;2023-04-25T05:55:46;11.00;99.90
37204;DHT22;23098;48.054;10.636;2023-04-25T05:58:12;10.90;99.90
37204;DHT22;23098;48.054;10.636;2023-04-25T06:00:37;10.30;99.90
37204;DHT22;23098;48.054;10.636;2023-04-25T06:03:03;9.90;99.90
37204;DHT22;23098;48.054;10.636;2023-04-25T06:05:37;9.40;99.90
37204;DHT22;23098;48.054;10.636;2023-04-25T06:08:03;9.00;99.90
37204;DHT22;23098;48.054;10.636;2023-04-25T06:10:29;9.50;99.90
37204;DHT22;23098;48.054;10.636;2023-04-25T06:12:55;9.70;99.90
37204;DHT22;23098;48.054;10.636;2023-04-25T06:15:21;10.20;99.90
37204;DHT22;23098;48.054;10.636;2023-04-25T06:17:46;10.40;99.90
37204;DHT22;23098;48.054;10.636;2023-04-25T06:20:12;10.80;99.90
37204;DHT22;23098;48.054;10.636;2023-04-25T06:22:37;11.50;99.90
37204;DHT22;23098;48.054;10.636;2023-04-25T06:25:03;11.50;99.90
37204;DHT22;23098;48.054;10.636;2023-04-25T06:27:29;11.00;99.90
37204;DHT22;23098;48.054;10.636;2023-04-25T06:29:55;9.80;99.90
37204;DHT22;23098;48.054;10.636;2023-04-25T06:32:21;9.30;99.90
37204;DHT22;23098;48.054;10.636;2023-04-25T06:34:46;9.80;99.90
37204;DHT22;23098;48.054;10.636;2023-04-25T06:37:12;10.00;99.90
37204;DHT22;23098;48.054;10.636;2023-04-25T06:39:37;10.20;99.90
37204;DHT22;23098;48.054;10.636;2023-04-25T06:42:03;10.80;99.90
37204;DHT22;23098;48.054;10.636;2023-04-25T06:44:29;11.00;99.90
37204;DHT22;23098;48.054;10.636;2023-04-25T06:46:56;10.50;99.90
37204;DHT22;23098;48.054;10.636;2023-04-25T06:49:22;10.00;99.90
37204;DHT22;23098;48.054;10.636;2023-04-25T06:51:47;9.60;99.90
37204;DHT22;23098;48.054;10.636;2023-04-25T06:54:13;9.50;99.90
37204;DHT22;23098;48.054;10.636;2023-04-25T06:56:40;9.50;99.90
37204;DHT22;23098;48.054;10.636;2023-04-25T06:59:05;9.30;99.90
37204;DHT22;23098;48.054;10.636;2023-04-25T07:01:34;9.20;99.90
37204;DHT22;23098;48.054;10.636;2023-04-25T07:04:04;9.20;99.90
37204;DHT22;23098;48.054;10.636;2023-04-25T07:06:31;9.10;99.90
37204;DHT22;23098;48.054;10.636;2023-04-25T07:08:57;9.20;99.90
37204;DHT22;23098;48.054;10.636;2023-04-25T07:11:23;9.30;99.90
37204;DHT22;23098;48.054;10.636;2023-04-25T07:14:09;9.30;99.90
37204;DHT22;23098;48.054;10.636;2023-04-25T07:16:36;9.20;99.90
37204;DHT22;23098;48.054;10.636;2023-04-25T07:19:04;9.30;99.90
37204;DHT22;23098;48.054;10.636;2023-04-25T07:21:30;9.20;99.90
37204;DHT22;23098;48.054;10.636;2023-04-25T07:23:59;9.20;99.90
37204;DHT22;23098;48.054;10.636;2023-04-25T07:26:25;9.50;99.90
37204;DHT22;23098;48.054;10.636;2023-04-25T07:28:51;9.50;99.90
37204;DHT22;23098;48.054;10.636;2023-04-25T07:31:17;9.70;99.90
37204;DHT22;23098;48.054;10.636;2023-04-25T07:33:45;10.30;99.90
37204;DHT22;23098;48.054;10.636;2023-04-25T07:36:14;10.40;99.90
37204;DHT22;23098;48.054;10.636;2023-04-25T07:38:41;10.30;99.90
37204;DHT22;23098;48.054;10.636;2023-04-25T07:41:07;10.20;99.90
37204;DHT22;23098;48.054;10.636;2023-04-25T07:43:34;10.20;99.90
37204;DHT22;23098;48.054;10.636;2023-04-25T07:46:02;10.50;99.90
37204;DHT22;23098;48.054;10.636;2023-04-25T07:48:32;10.40;99.30
37204;DHT22;23098;48.054;10.636;2023-04-25T07:50:58;10.30;99.00
37204;DHT22;23098;48.054;10.636;2023-04-25T07:53:24;10.30;99.00
37204;DHT22;23098;48.054;10.636;2023-04-25T07:55:50;10.10;98.90
37204;DHT22;23098;48.054;10.636;2023-04-25T07:58:16;10.30;98.90
37204;DHT22;23098;48.054;10.636;2023-04-25T08:00:47;10.50;99.50
37204;DHT22;23098;48.054;10.636;2023-04-25T08:03:13;10.80;98.90
37204;DHT22;23098;48.054;10.636;2023-04-25T08:05:39;11.10;99.00
37204;DHT22;23098;48.054;10.636;2023-04-25T08:08:04;11.20;97.20
37204;DHT22;23098;48.054;10.636;2023-04-25T08:10:32;11.50;97.70
37204;DHT22;23098;48.054;10.636;2023-04-25T08:12:58;11.50;96.60
37204;DHT22;23098;48.054;10.636;2023-04-25T08:15:25;11.30;96.10
37204;DHT22;23098;48.054;10.636;2023-04-25T08:17:52;11.10;96.70
37204;DHT22;23098;48.054;10.636;2023-04-25T08:20:17;10.70;97.70
37204;DHT22;23098;48.054;10.636;2023-04-25T08:22:43;11.00;97.60
37204;DHT22;23098;48.054;10.636;2023-04-25T08:25:09;11.30;98.20
37204;DHT22;23098;48.054;10.636;2023-04-25T08:27:34;11.20;97.30
37204;DHT22;23098;48.054;10.636;2023-04-25T08:30:00;11.00;95.30
37204;DHT22;23098;48.054;10.636;2023-04-25T08:32:27;10.70;96.50
37204;DHT22;23098;48.054;10.636;2023-04-25T08:34:53;10.60;96.80
37204;DHT22;23098;48.054;10.636;2023-04-25T08:37:20;10.60;97.10
37204;DHT22;23098;48.054;10.636;2023-04-25T08:39:46;10.70;96.30
37204;DHT22;23098;48.054;10.636;2023-04-25T08:42:15;10.90;96.60
37204;DHT22;23098;48.054;10.636;2023-04-25T08:44:40;11.30;96.10
37204;DHT22;23098;48.054;10.636;2023-04-25T08:47:06;11.60;95.70
37204;DHT22;23098;48.054;10.636;2023-04-25T08:49:32;11.40;96.30
37204;DHT22;23098;48.054;10.636;2023-04-25T08:52:04;10.90;96.00
37204;DHT22;23098;48.054;10.636;2023-04-25T08:54:32;10.60;96.40
37204;DHT22;23098;48.054;10.636;2023-04-25T08:57:01;10.40;96.20
37204;DHT22;23098;48.054;10.636;2023-04-25T08:59:29;10.50;96.90
37204;DHT22;23098;48.054;10.636;2023-04-25T09:01:55;10.60;97.10
37204;DHT22;23098;48.054;10.636;2023-04-25T09:04:20;10.60;97.10
37204;DHT22;23098;48.054;10.636;2023-04-25T09:06:47;10.50;96.30
37204;DHT22;23098;48.054;10.636;2023-04-25T09:09:12;10.20;97.10
37204;DHT22;23098;48.054;10.636;2023-04-25T09:11:38;10.10;97.30
37204;DHT22;23098;48.054;10.636;2023-04-25T09:14:20;10.10;97.30
37204;DHT22;23098;48.054;10.636;2023-04-25T09:19:34;10.00;97.40
37204;DHT22;23098;48.054;10.636;2023-04-25T09:22:02;10.10;97.70
37204;DHT22;23098;48.054;10.636;2023-04-25T09:24:58;10.00;97.50
37204;DHT22;23098;48.054;10.636;2023-04-25T09:27:27;10.20;98.10
37204;DHT22;23098;48.054;10.636;2023-04-25T09:29:57;10.40;97.70
37204;DHT22;23098;48.054;10.636;2023-04-25T09:32:25;10.40;98.10
37204;DHT22;23098;48.054;10.636;2023-04-25T09:34:52;10.40;98.00
37204;DHT22;23098;48.054;10.636;2023-04-25T09:37:26;10.40;97.00
37204;DHT22;23098;48.054;10.636;2023-04-25T09:39:59;10.40;97.20
37204;DHT22;23098;48.054;10.636;2023-04-25T09:42:28;10.40;97.50
37204;DHT22;23098;48.054;10.636;2023-04-25T09:44:55;10.30;98.60
37204;DHT22;23098;48.054;10.636;2023-04-25T09:47:23;9.90;99.30
37204;DHT22;23098;48.054;10.636;2023-04-25T09:49:50;9.80;98.90
37204;DHT22;23098;48.054;10.636;2023-04-25T09:52:19;9.60;99.90
37204;DHT22;23098;48.054;10.636;2023-04-25T09:54:45;9.30;99.90
37204;DHT22;23098;48.054;10.636;2023-04-25T09:57:21;9.00;99.90
37204;DHT22;23098;48.054;10.636;2023-04-25T09:59:55;8.80;99.90
37204;DHT22;23098;48.054;10.636;2023-04-25T10:02:27;8.70;99.90
37204;DHT22;23098;48.054;10.636;2023-04-25T10:05:02;8.30;99.90
37204;DHT22;23098;48.054;10.636;2023-04-25T10:07:31;7.30;99.90
37204;DHT22;23098;48.054;10.636;2023-04-25T10:10:02;6.60;99.90
37204;DHT22;23098;48.054;10.636;2023-04-25T10:12:29;5.90;99.90
37204;DHT22;23098;48.054;10.636;2023-04-25T10:14:55;5.80;99.90
37204;DHT22;23098;48.054;10.636;2023-04-25T10:17:20;5.60;99.90
37204;DHT22;23098;48.054;10.636;2023-04-25T10:19:47;5.40;99.90
37204;DHT22;23098;48.054;10.636;2023-04-25T10:22:23;5.40;99.90
37204;DHT22;23098;48.054;10.636;2023-04-25T10:24:55;5.50;99.90
37204;DHT22;23098;48.054;10.636;2023-04-25T10:27:21;5.60;99.90
37204;DHT22;23098;48.054;10.636;2023-04-25T10:30:00;5.60;99.90
37204;DHT22;23098;48.054;10.636;2023-04-25T10:32:26;5.60;99.90
37204;DHT22;23098;48.054;10.636;2023-04-25T10:34:51;5.60;99.90
37204;DHT22;23098;48.054;10.636;2023-04-25T10:37:19;5.50;99.90
37204;DHT22;23098;48.054;10.636;2023-04-25T10:39:47;5.40;99.90
37204;DHT22;23098;48.054;10.636;2023-04-25T10:42:13;5.40;99.90
37204;DHT22;23098;48.054;10.636;2023-04-25T10:44:39;5.40;99.90
37204;DHT22;23098;48.054;10.636;2023-04-25T10:47:07;5.40;99.90
37204;DHT22;23098;48.054;10.636;2023-04-25T10:49:42;5.40;99.90
37204;DHT22;23098;48.054;10.636;2023-04-25T10:52:12;5.50;99.90
37204;DHT22;23098;48.054;10.636;2023-04-25T10:54:47;5.60;99.90
37204;DHT22;23098;48.054;10.636;2023-04-25T10:57:41;5.60;99.90
37204;DHT22;23098;48.054;10.636;2023-04-25T11:00:37;5.70;99.90
37204;DHT22;23098;48.054;10.636;2023-04-25T11:03:09;5.70;99.90
37204;DHT22;23098;48.054;10.636;2023-04-25T11:05:38;5.70;99.90
37204;DHT22;23098;48.054;10.636;2023-04-25T11:08:14;5.80;99.90
37204;DHT22;23098;48.054;10.636;2023-04-25T11:10:49;5.90;99.90
37204;DHT22;23098;48.054;10.636;2023-04-25T11:13:15;6.00;99.90
37204;DHT22;23098;48.054;10.636;2023-04-25T11:15:41;6.00;99.90
37204;DHT22;23098;48.054;10.636;2023-04-25T11:18:07;6.10;99.90
37204;DHT22;23098;48.054;10.636;2023-04-25T11:20:32;6.10;99.90
37204;DHT22;23098;48.054;10.636;2023-04-25T11:22:58;6.20;99.90
37204;DHT22;23098;48.054;10.636;2023-04-25T11:25:25;6.40;99.90
37204;DHT22;23098;48.054;10.636;2023-04-25T11:27:58;6.40;99.90
37204;DHT22;23098;48.054;10.636;2023-04-25T11:30:26;6.40;99.90
37204;DHT22;23098;48.054;10.636;2023-04-25T11:32:53;6.60;99.90
37204;DHT22;23098;48.054;10.636;2023-04-25T11:35:19;6.30;99.90
37204;DHT22;23098;48.054;10.636;2023-04-25T11:37:46;6.30;99.90
37204;DHT22;23098;48.054;10.636;2023-04-25T11:40:12;6.50;99.90
37204;DHT22;23098;48.054;10.636;2023-04-25T11:42:39;6.60;99.90
37204;DHT22;23098;48.054;10.636;2023-04-25T11:45:08;6.80;99.90
37204;DHT22;23098;48.054;10.636;2023-04-25T11:47:36;6.80;99.90
37204;DHT22;23098;48.054;10.636;2023-04-25T11:50:05;6.80;99.90
37204;DHT22;23098;48.054;10.636;2023-04-25T11:55:07;6.90;99.90
37204;DHT22;23098;48.054;10.636;2023-04-25T11:57:33;7.00;99.90
37204;DHT22;23098;48.054;10.636;2023-04-25T12:00:28;7.30;99.90
37204;DHT22;23098;48.054;10.636;2023-04-25T12:02:55;7.80;99.90
37204;DHT22;23098;48.054;10.636;2023-04-25T12:05:29;7.90;99.90
37204;DHT22;23098;48.054;10.636;2023-04-25T12:07:56;7.70;99.90
37204;DHT22;23098;48.054;10.636;2023-04-25T12:10:24;7.40;99.90
37204;DHT22;23098;48.054;10.636;2023-04-25T12:12:50;7.40;99.90
37204;DHT22;23098;48.054;10.636;2023-04-25T12:15:18;7.50;99.90
37204;DHT22;23098;48.054;10.636;2023-04-25T12:17:52;7.50;99.90
37204;DHT22;23098;48.054;10.636;2023-04-25T12:20:20;7.10;99.90
37204;DHT22;23098;48.054;10.636;2023-04-25T12:22:48;7.00;99.90
37204;DHT22;23098;48.054;10.636;2023-04-25T12:25:40;6.90;99.90
37204;DHT22;23098;48.054;10.636;2023-04-25T12:28:20;6.80;99.90
37204;DHT22;23098;48.054;10.636;2023-04-25T12:31:12;6.50;99.90
37204;DHT22;23098;48.054;10.636;2023-04-25T12:33:40;6.30;99.90
37204;DHT22;23098;48.054;10.636;2023-04-25T12:36:08;6.10;99.90
37204;DHT22;23098;48.054;10.636;2023-04-25T12:38:41;6.00;99.90
37204;DHT22;23098;48.054;10.636;2023-04-25T12:41:08;6.10;99.90
37204;DHT22;23098;48.054;10.636;2023-04-25T12:43:33;6.30;99.90
37204;DHT22;23098;48.054;10.636;2023-04-25T12:46:00;6.40;99.90
37204;DHT22;23098;48.054;10.636;2023-04-25T12:48:25;6.40;99.90
37204;DHT22;23098;48.054;10.636;2023-04-25T12:50:51;6.60;99.90
37204;DHT22;23098;48.054;10.636;2023-04-25T12:53:18;6.70;99.90
37204;DHT22;23098;48.054;10.636;2023-04-25T12:55:45;6.60;99.90
37204;DHT22;23098;48.054;10.636;2023-04-25T12:58:15;6.60;99.90
37204;DHT22;23098;48.054;10.636;2023-04-25T13:00:41;6.70;99.90
37204;DHT22;23098;48.054;10.636;2023-04-25T13:03:07;6.70;99.90
37204;DHT22;23098;48.054;10.636;2023-04-25T13:05:33;6.70;99.90
37204;DHT22;23098;48.054;10.636;2023-04-25T13:07:59;6.60;99.90
37204;DHT22;23098;48.054;10.636;2023-04-25T13:10:24;6.60;99.90
37204;DHT22;23098;48.054;10.636;2023-04-25T13:12:50;6.70;99.90
37204;DHT22;23098;48.054;10.636;2023-04-25T13:15:16;6.90;99.90
37204;DHT22;23098;48.054;10.636;2023-04-25T13:17:42;7.00;99.90
37204;DHT22;23098;48.054;10.636;2023-04-25T13:20:08;7.20;99.90
37204;DHT22;23098;48.054;10.636;2023-04-25T13:22:41;7.00;99.90
37204;DHT22;23098;48.054;10.636;2023-04-25T13:25:08;6.80;99.90
37204;DHT22;23098;48.054;10.636;2023-04-25T13:27:35;6.90;99.90
37204;DHT22;23098;48.054;10.636;2023-04-25T13:30:01;6.90;99.90
37204;DHT22;23098;48.054;10.636;2023-04-25T13:32:33;6.90;99.90
37204;DHT22;23098;48.054;10.636;2023-04-25T13:34:59;6.90;99.90
37204;DHT22;23098;48.054;10.636;2023-04-25T13:37:24;7.00;99.90
37204;DHT22;23098;48.054;10.636;2023-04-25T13:39:50;7.00;99.90
37204;DHT22;23098;48.054;10.636;2023-04-25T13:42:16;7.10;99.90
37204;DHT22;23098;48.054;10.636;2023-04-25T13:44:42;7.20;99.90
37204;DHT22;23098;48.054;10.636;2023-04-25T13:47:07;7.40;99.90
37204;DHT22;23098;48.054;10.636;2023-04-25T13:49:33;7.70;99.90
37204;DHT22;23098;48.054;10.636;2023-04-25T13:51:58;7.80;99.90
37204;DHT22;23098;48.054;10.636;2023-04-25T13:54:24;7.60;99.90
37204;DHT22;23098;48.054;10.636;2023-04-25T13:56:50;7.90;99.90
37204;DHT22;23098;48.054;10.636;2023-04-25T13:59:15;8.20;99.90
37204;DHT22;23098;48.054;10.636;2023-04-25T14:01:41;8.10;99.90
37204;DHT22;23098;48.054;10.636;2023-04-25T14:04:07;7.40;99.90
37204;DHT22;23098;48.054;10.636;2023-04-25T14:06:32;7.20;99.90
37204;DHT22;23098;48.054;10.636;2023-04-25T14:08:58;7.00;99.90
37204;DHT22;23098;48.054;10.636;2023-04-25T14:11:26;7.00;99.90
37204;DHT22;23098;48.054;10.636;2023-04-25T14:13:51;6.80;99.90
37204;DHT22;23098;48.054;10.636;2023-04-25T14:16:17;6.80;99.90
37204;DHT22;23098;48.054;10.636;2023-04-25T14:18:42;6.90;99.90
37204;DHT22;23098;48.054;10.636;2023-04-25T14:21:08;7.10;99.90
37204;DHT22;23098;48.054;10.636;2023-04-25T14:23:35;7.00;99.90
37204;DHT22;23098;48.054;10.636;2023-04-25T14:26:01;7.00;99.90
37204;DHT22;23098;48.054;10.636;2023-04-25T14:28:26;7.30;99.90
37204;DHT22;23098;48.054;10.636;2023-04-25T14:30:52;7.30;99.90
37204;DHT22;23098;48.054;10.636;2023-04-25T14:33:18;7.40;99.90
37204;DHT22;23098;48.054;10.636;2023-04-25T14:35:43;7.10;99.90
37204;DHT22;23098;48.054;10.636;2023-04-25T14:38:10;7.20;99.90
37204;DHT22;23098;48.054;10.636;2023-04-25T14:40:37;7.40;99.90
37204;DHT22;23098;48.054;10.636;2023-04-25T14:43:03;7.30;99.90
37204;DHT22;23098;48.054;10.636;2023-04-25T14:45:30;7.00;99.90
37204;DHT22;23098;48.054;10.636;2023-04-25T14:47:55;6.90;99.90
37204;DHT22;23098;48.054;10.636;2023-04-25T14:50:21;6.80;99.90
37204;DHT22;23098;48.054;10.636;2023-04-25T14:52:46;6.70;99.90
37204;DHT22;23098;48.054;10.636;2023-04-25T14:55:24;6.80;99.90
37204;DHT22;23098;48.054;10.636;2023-04-25T14:57:55;6.90;99.90
37204;DHT22;23098;48.054;10.636;2023-04-25T15:00:21;6.90;99.90
37204;DHT22;23098;48.054;10.636;2023-04-25T15:02:48;6.80;99.90
37204;DHT22;23098;48.054;10.636;2023-04-25T15:05:13;7.30;99.90
37204;DHT22;23098;48.054;10.636;2023-04-25T15:07:39;7.30;99.90
37204;DHT22;23098;48.054;10.636;2023-04-25T15:10:08;7.30;99.90
37204;DHT22;23098;48.054;10.636;2023-04-25T15:12:42;7.00;99.90
37204;DHT22;23098;48.054;10.636;2023-04-25T15:15:08;7.20;99.90
37204;DHT22;23098;48.054;10.636;2023-04-25T15:17:46;7.40;99.90
37204;DHT22;23098;48.054;10.636;2023-04-25T15:20:13;7.60;99.90
37204;DHT22;23098;48.054;10.636;2023-04-25T15:22:40;7.90;99.90
37204;DHT22;23098;48.054;10.636;2023-04-25T15:25:06;7.70;99.90
37204;DHT22;23098;48.054;10.636;2023-04-25T15:27:35;7.60;99.90
37204;DHT22;23098;48.054;10.636;2023-04-25T15:30:11;7.90;99.90
37204;DHT22;23098;48.054;10.636;2023-04-25T15:32:38;8.30;99.90